createdAt,value
2023-04-16T00:01:36.999Z,64.75
2023-04-16T00:04:03.721Z,64.93
2023-04-16T00:06:30.290Z,65.50
2023-04-16T00:08:56.628Z,64.76
2023-04-16T00:11:23.041Z,65.08
2023-04-16T00:13:49.418Z,64.96
2023-04-16T00:16:15.883Z,64.91
2023-04-16T00:18:42.356Z,64.47
2023-04-16T00:21:08.755Z,64.14
2023-04-16T00:23:35.186Z,63.93
2023-04-16T00:26:01.596Z,65.10
2023-04-16T00:28:27.968Z,65.83
2023-04-16T00:30:54.364Z,67.75
2023-04-16T00:33:20.864Z,66.82
2023-04-16T00:35:47.292Z,66.11
2023-04-16T00:38:13.690Z,66.23
2023-04-16T00:40:40.058Z,66.64
2023-04-16T00:43:06.462Z,67.08
2023-04-16T00:45:32.866Z,67.42
2023-04-16T00:48:00.529Z,67.58
2023-04-16T00:50:27.138Z,67.22
2023-04-16T00:52:53.712Z,66.54
2023-04-16T00:55:20.070Z,65.59
2023-04-16T00:57:46.465Z,65.70
2023-04-16T01:00:12.827Z,65.68
2023-04-16T01:02:39.334Z,66.41
2023-04-16T01:05:05.806Z,66.94
2023-04-16T01:07:32.168Z,67.38
2023-04-16T01:09:58.537Z,66.09
2023-04-16T01:12:25.005Z,65.69
2023-04-16T01:14:51.376Z,64.96
2023-04-16T01:17:17.773Z,64.43
2023-04-16T01:19:44.191Z,64.63
2023-04-16T01:22:10.556Z,64.79
2023-04-16T01:24:36.973Z,64.49
2023-04-16T01:27:03.370Z,65.18
2023-04-16T01:29:29.760Z,64.69
2023-04-16T01:31:56.138Z,64.71
2023-04-16T01:34:22.573Z,64.61
2023-04-16T01:36:48.970Z,63.96
2023-04-16T01:39:15.353Z,63.90
2023-04-16T01:41:41.883Z,64.29
2023-04-16T01:44:08.272Z,64.42
2023-04-16T01:46:34.673Z,64.36
2023-04-16T01:49:01.104Z,64.71
2023-04-16T01:51:27.445Z,65.03
2023-04-16T01:53:53.850Z,64.83
2023-04-16T01:56:20.242Z,64.81
2023-04-16T01:58:46.641Z,65.34
2023-04-16T02:01:13.048Z,64.95
2023-04-16T02:03:39.677Z,65.24
2023-04-16T02:06:06.211Z,64.51
2023-04-16T02:08:32.620Z,64.71
2023-04-16T02:10:59.024Z,64.13
2023-04-16T02:13:27.184Z,63.89
2023-04-16T02:15:53.589Z,63.97
2023-04-16T02:18:20.028Z,64.39
2023-04-16T02:20:46.416Z,64.79
2023-04-16T02:23:12.839Z,65.29
2023-04-16T02:25:39.205Z,64.27
2023-04-16T02:28:05.594Z,65.18
2023-04-16T02:30:31.967Z,65.84
2023-04-16T02:32:58.575Z,65.83
2023-04-16T02:35:24.947Z,66.69
2023-04-16T02:37:51.307Z,66.99
2023-04-16T02:40:17.671Z,68.04
2023-04-16T02:42:44.024Z,66.80
2023-04-16T02:45:10.363Z,66.54
2023-04-16T02:47:36.801Z,65.90
2023-04-16T02:50:03.177Z,65.78
2023-04-16T02:52:29.559Z,66.03
2023-04-16T02:54:55.956Z,65.51
2023-04-16T02:57:22.335Z,65.24
2023-04-16T02:59:48.777Z,65.24
2023-04-16T03:02:15.189Z,65.55
2023-04-16T03:04:41.744Z,65.48
2023-04-16T03:07:08.244Z,65.43
2023-04-16T03:09:34.683Z,65.26
2023-04-16T03:12:01.059Z,65.16
2023-04-16T03:14:27.446Z,65.27
2023-04-16T03:16:53.832Z,66.50
2023-04-16T03:19:20.209Z,66.93
2023-04-16T03:21:46.581Z,66.94
2023-04-16T03:24:12.981Z,66.72
2023-04-16T03:26:39.334Z,66.03
2023-04-16T03:29:05.700Z,66.30
2023-04-16T03:31:32.162Z,67.03
2023-04-16T03:33:58.540Z,65.93
2023-04-16T03:36:24.904Z,65.68
2023-04-16T03:38:51.323Z,66.78
2023-04-16T03:41:17.686Z,66.08
2023-04-16T03:43:44.056Z,65.73
2023-04-16T03:46:10.489Z,65.67
2023-04-16T03:48:36.940Z,65.34
2023-04-16T03:51:03.332Z,64.99
2023-04-16T03:53:29.721Z,65.69
2023-04-16T03:55:56.181Z,66.56
2023-04-16T03:58:22.564Z,66.73
2023-04-16T04:00:48.934Z,66.84
2023-04-16T04:03:15.445Z,67.38
2023-04-16T04:05:41.995Z,68.12
2023-04-16T04:08:08.372Z,68.68
2023-04-16T04:10:34.743Z,68.55
2023-04-16T04:13:01.176Z,68.47
2023-04-16T04:15:27.555Z,68.58
2023-04-16T04:17:54.001Z,67.45
2023-04-16T04:20:20.462Z,67.01
2023-04-16T04:22:46.877Z,67.69
2023-04-16T04:25:13.308Z,67.55
2023-04-16T04:27:39.660Z,67.78
2023-04-16T04:30:06.033Z,68.28
2023-04-16T04:32:32.469Z,68.76
2023-04-16T04:34:58.929Z,69.65
2023-04-16T04:37:25.298Z,69.12
2023-04-16T04:39:51.688Z,69.36
2023-04-16T04:42:18.087Z,67.95
2023-04-16T04:44:44.498Z,67.65
2023-04-16T04:47:10.890Z,68.02
2023-04-16T04:49:37.288Z,68.45
2023-04-16T04:52:03.728Z,66.88
2023-04-16T04:54:30.098Z,67.72
2023-04-16T04:56:56.489Z,68.20
2023-04-16T04:59:22.852Z,68.11
2023-04-16T05:01:49.276Z,66.04
2023-04-16T05:04:15.733Z,65.12
2023-04-16T05:06:42.277Z,65.12
2023-04-16T05:09:08.810Z,65.43
2023-04-16T05:11:35.447Z,66.99
2023-04-16T05:14:01.805Z,67.09
2023-04-16T05:16:28.232Z,66.20
2023-04-16T05:18:54.642Z,65.71
2023-04-16T05:21:21.006Z,66.35
2023-04-16T05:23:47.381Z,64.71
2023-04-16T05:26:13.891Z,64.34
2023-04-16T05:28:40.280Z,63.85
2023-04-16T05:31:06.649Z,63.94
2023-04-16T05:33:33.080Z,65.22
2023-04-16T05:35:59.470Z,64.23
2023-04-16T05:38:25.920Z,63.72
2023-04-16T05:40:52.487Z,63.07
2023-04-16T05:43:18.851Z,62.98
2023-04-16T05:45:45.240Z,62.24
2023-04-16T05:48:11.635Z,62.90
2023-04-16T05:50:38.070Z,62.59
2023-04-16T05:53:04.465Z,63.29
2023-04-16T05:55:30.854Z,64.09
2023-04-16T05:57:57.418Z,63.63
2023-04-16T06:00:23.814Z,63.21
2023-04-16T06:02:50.365Z,62.10
2023-04-16T06:05:16.975Z,62.02
2023-04-16T06:07:43.437Z,61.61
2023-04-16T06:10:09.865Z,62.05
2023-04-16T06:12:36.296Z,62.09
2023-04-16T06:15:02.874Z,62.19
2023-04-16T06:17:29.282Z,61.73
2023-04-16T06:19:55.691Z,61.86
2023-04-16T06:22:22.223Z,61.13
2023-04-16T06:24:48.618Z,60.90
2023-04-16T06:27:15.092Z,60.62
2023-04-16T06:29:42.014Z,60.93
2023-04-16T06:32:08.582Z,61.38
2023-04-16T06:34:35.015Z,60.81
2023-04-16T06:37:01.403Z,61.73
2023-04-16T06:39:27.787Z,61.28
2023-04-16T06:41:54.164Z,60.87
2023-04-16T06:44:20.539Z,61.80
2023-04-16T06:46:46.931Z,62.70
2023-04-16T06:49:13.391Z,62.43
2023-04-16T06:51:39.778Z,62.03
2023-04-16T06:54:06.199Z,62.89
2023-04-16T06:56:32.574Z,62.35
2023-04-16T06:58:58.944Z,62.09
2023-04-16T07:01:25.418Z,62.66
2023-04-16T07:03:52.076Z,62.80
2023-04-16T07:06:18.740Z,62.46
2023-04-16T07:08:45.108Z,61.67
2023-04-16T07:11:11.731Z,60.51
2023-04-16T07:13:38.175Z,60.72
2023-04-16T07:16:04.905Z,61.99
2023-04-16T07:18:31.321Z,63.45
2023-04-16T07:20:57.755Z,63.72
2023-04-16T07:23:24.133Z,62.78
2023-04-16T07:25:50.544Z,63.54
2023-04-16T07:28:17.008Z,63.93
2023-04-16T07:30:43.724Z,63.99
2023-04-16T07:33:10.153Z,64.15
2023-04-16T07:35:36.608Z,63.77
2023-04-16T07:38:03.040Z,64.68
2023-04-16T07:40:29.646Z,63.65
2023-04-16T07:42:56.063Z,63.59
2023-04-16T07:45:22.598Z,62.84
2023-04-16T07:47:49.105Z,62.24
2023-04-16T07:50:15.778Z,61.57
2023-04-16T07:52:42.233Z,61.80
2023-04-16T07:55:08.681Z,62.05
2023-04-16T07:57:35.244Z,61.54
2023-04-16T08:00:01.892Z,61.51
2023-04-16T08:02:28.710Z,60.76
2023-04-16T08:04:55.584Z,60.32
2023-04-16T08:07:22.060Z,59.88
2023-04-16T08:09:48.459Z,59.88
2023-04-16T08:12:14.827Z,58.25
2023-04-16T08:14:41.303Z,57.11
2023-04-16T08:17:07.734Z,56.85
2023-04-16T08:19:34.135Z,56.10
2023-04-16T08:22:00.598Z,55.76
2023-04-16T08:24:27.077Z,55.43
2023-04-16T08:26:53.503Z,53.89
2023-04-16T08:29:19.958Z,53.09
2023-04-16T08:31:46.420Z,53.74
2023-04-16T08:34:12.945Z,52.93
2023-04-16T08:36:39.359Z,52.53
2023-04-16T08:39:05.775Z,52.92
2023-04-16T08:41:32.176Z,52.28
2023-04-16T08:43:58.687Z,52.23
2023-04-16T08:46:25.077Z,52.14
2023-04-16T08:48:51.466Z,51.42
2023-04-16T08:51:17.912Z,51.51
2023-04-16T08:53:44.297Z,51.73
2023-04-16T08:56:10.721Z,52.02
2023-04-16T08:58:37.114Z,51.18
2023-04-16T09:01:03.526Z,51.10
2023-04-16T09:03:30.035Z,47.75
2023-04-16T09:05:56.525Z,47.73
2023-04-16T09:08:22.965Z,48.02
2023-04-16T09:10:49.357Z,47.99
2023-04-16T09:13:15.775Z,49.29
2023-04-16T09:15:42.155Z,48.30
2023-04-16T09:18:08.541Z,48.07
2023-04-16T09:20:34.958Z,47.64
2023-04-16T09:23:01.393Z,46.58
2023-04-16T09:25:27.802Z,45.89
2023-04-16T09:27:54.171Z,45.47
2023-04-16T09:30:20.575Z,45.83
2023-04-16T09:32:47.012Z,46.21
2023-04-16T09:35:13.410Z,46.07
2023-04-16T09:37:39.885Z,44.80
2023-04-16T09:40:06.293Z,44.85
2023-04-16T09:42:32.683Z,45.40
2023-04-16T09:45:00.816Z,44.72
2023-04-16T09:47:28.752Z,44.13
2023-04-16T09:49:55.157Z,43.31
2023-04-16T09:52:21.553Z,43.33
2023-04-16T09:54:48.023Z,43.26
2023-04-16T09:57:14.434Z,43.11
2023-04-16T09:59:40.811Z,42.92
2023-04-16T10:02:14.514Z,43.15
2023-04-16T10:04:42.777Z,43.62
2023-04-16T10:07:09.278Z,44.38
2023-04-16T10:09:35.660Z,45.00
2023-04-16T10:12:02.054Z,44.41
2023-04-16T10:14:28.430Z,43.67
2023-04-16T10:16:54.908Z,44.19
2023-04-16T10:19:22.492Z,43.49
2023-04-16T10:21:48.985Z,44.40
2023-04-16T10:24:15.366Z,43.62
2023-04-16T10:26:41.790Z,43.13
2023-04-16T10:29:08.243Z,43.47
2023-04-16T10:31:34.699Z,43.67
2023-04-16T10:34:01.194Z,43.75
2023-04-16T10:36:27.679Z,43.94
2023-04-16T10:38:54.077Z,43.23
2023-04-16T10:41:20.453Z,43.70
2023-04-16T10:43:46.986Z,43.32
2023-04-16T10:46:13.397Z,42.52
2023-04-16T10:48:49.649Z,42.36
2023-04-16T10:51:17.308Z,42.45
2023-04-16T10:53:43.727Z,41.95
2023-04-16T10:56:10.129Z,41.38
2023-04-16T10:58:36.537Z,41.78
2023-04-16T11:01:02.903Z,41.14
2023-04-16T11:03:29.496Z,41.63
2023-04-16T11:05:55.970Z,41.91
2023-04-16T11:08:23.389Z,41.85
2023-04-16T11:10:51.106Z,41.69
2023-04-16T11:13:17.696Z,41.89
2023-04-16T11:15:44.171Z,41.77
2023-04-16T11:18:10.676Z,42.29
2023-04-16T11:20:37.075Z,42.70
2023-04-16T11:23:03.485Z,42.58
2023-04-16T11:25:30.012Z,43.25
2023-04-16T11:27:56.443Z,43.00
2023-04-16T11:30:22.824Z,43.61
2023-04-16T11:32:49.268Z,43.98
2023-04-16T11:35:15.700Z,43.95
2023-04-16T11:37:42.135Z,45.05
2023-04-16T11:40:08.521Z,44.38
2023-04-16T11:42:34.999Z,44.26
2023-04-16T11:45:01.537Z,44.70
2023-04-16T11:47:28.052Z,44.23
2023-04-16T11:49:54.472Z,44.35
2023-04-16T11:52:20.907Z,44.67
2023-04-16T11:54:47.356Z,44.79
2023-04-16T11:57:13.923Z,44.18
2023-04-16T12:00:02.012Z,43.31
2023-04-16T12:02:26.809Z,44.06
2023-04-16T12:04:53.282Z,43.03
2023-04-16T12:07:19.759Z,42.98
2023-04-16T12:09:46.157Z,42.50
2023-04-16T12:12:12.584Z,42.05
2023-04-16T12:14:38.969Z,42.10
2023-04-16T12:17:05.425Z,42.33
2023-04-16T12:19:31.825Z,41.84
2023-04-16T12:21:58.197Z,41.89
2023-04-16T12:24:24.587Z,42.19
2023-04-16T12:26:51.029Z,40.84
2023-04-16T12:29:17.540Z,40.79
2023-04-16T12:31:43.949Z,40.27
2023-04-16T12:34:10.409Z,40.20
2023-04-16T12:36:36.827Z,39.74
2023-04-16T12:39:03.192Z,39.41
2023-04-16T12:41:29.568Z,38.72
2023-04-16T12:43:56.043Z,38.18
2023-04-16T12:46:22.642Z,38.11
2023-04-16T12:48:49.180Z,37.78
2023-04-16T12:51:15.550Z,37.73
2023-04-16T12:53:42.037Z,38.98
2023-04-16T12:56:08.581Z,38.52
2023-04-16T12:58:35.012Z,38.91
2023-04-16T13:01:01.374Z,37.51
2023-04-16T13:03:27.958Z,38.51
2023-04-16T13:05:54.413Z,38.46
2023-04-16T13:08:20.795Z,38.68
2023-04-16T13:10:47.240Z,38.36
2023-04-16T13:13:13.605Z,38.06
2023-04-16T13:15:40.066Z,38.49
2023-04-16T13:18:06.650Z,39.11
2023-04-16T13:20:33.067Z,39.50
2023-04-16T13:22:59.473Z,39.72
2023-04-16T13:25:26.110Z,40.42
2023-04-16T13:27:52.528Z,39.99
2023-04-16T13:30:18.931Z,39.43
2023-04-16T13:32:45.370Z,39.82
2023-04-16T13:35:11.847Z,39.13
2023-04-16T13:37:38.249Z,39.66
2023-04-16T13:40:04.760Z,39.51
2023-04-16T13:42:31.275Z,38.70
2023-04-16T13:44:57.660Z,38.38
2023-04-16T13:47:24.132Z,38.06
2023-04-16T13:49:50.696Z,37.67
2023-04-16T13:52:17.087Z,37.46
2023-04-16T13:54:43.484Z,38.10
2023-04-16T13:57:09.965Z,39.04
2023-04-16T13:59:36.388Z,39.49
2023-04-16T14:02:02.877Z,38.70
2023-04-16T14:04:29.567Z,39.99
2023-04-16T14:06:56.026Z,40.29
2023-04-16T14:09:23.836Z,40.44
2023-04-16T14:11:50.515Z,40.61
2023-04-16T14:14:16.888Z,41.68
2023-04-16T14:16:43.420Z,41.68
2023-04-16T14:19:10.222Z,42.18
2023-04-16T14:21:36.810Z,41.73
2023-04-16T14:24:03.424Z,41.81
2023-04-16T14:26:29.846Z,41.35
2023-04-16T14:28:56.367Z,40.32
2023-04-16T14:31:22.923Z,39.83
2023-04-16T14:33:49.351Z,39.48
2023-04-16T14:36:15.834Z,37.80
2023-04-16T14:38:42.283Z,37.50
2023-04-16T14:41:08.801Z,36.45
2023-04-16T14:43:35.201Z,35.32
2023-04-16T14:46:01.715Z,34.80
2023-04-16T14:48:28.170Z,35.15
2023-04-16T14:50:54.618Z,33.30
2023-04-16T14:53:21.097Z,33.76
2023-04-16T14:55:47.583Z,36.19
2023-04-16T14:58:14.149Z,35.69
2023-04-16T15:00:40.530Z,36.73
2023-04-16T15:03:07.211Z,36.12
2023-04-16T15:05:34.003Z,35.48
2023-04-16T15:08:00.393Z,34.63
2023-04-16T15:10:26.815Z,33.72
2023-04-16T15:12:53.203Z,32.40
2023-04-16T15:15:19.649Z,32.82
2023-04-16T15:17:46.105Z,32.80
2023-04-16T15:20:12.697Z,34.78
2023-04-16T15:22:39.632Z,36.21
2023-04-16T15:25:06.352Z,37.01
2023-04-16T15:27:32.834Z,38.77
2023-04-16T15:29:59.267Z,39.18
2023-04-16T15:32:25.735Z,39.03
2023-04-16T15:34:52.181Z,38.79
2023-04-16T15:37:18.713Z,39.19
2023-04-16T15:39:45.139Z,39.88
2023-04-16T15:42:11.580Z,39.72
2023-04-16T15:44:38.051Z,39.28
2023-04-16T15:47:04.595Z,40.47
2023-04-16T15:49:30.989Z,41.24
2023-04-16T15:51:57.583Z,41.93
2023-04-16T15:54:24.039Z,42.68
2023-04-16T15:56:50.450Z,42.20
2023-04-16T15:59:16.830Z,41.97
2023-04-16T16:01:43.233Z,40.99
2023-04-16T16:04:10.545Z,37.03
2023-04-16T16:06:37.098Z,38.49
2023-04-16T16:09:03.468Z,39.91
2023-04-16T16:11:30.010Z,40.07
2023-04-16T16:13:56.396Z,40.95
2023-04-16T16:16:22.866Z,42.02
2023-04-16T16:18:49.274Z,41.96
2023-04-16T16:21:15.944Z,43.08
2023-04-16T16:23:42.517Z,43.16
2023-04-16T16:26:09.070Z,43.35
2023-04-16T16:28:35.520Z,43.21
2023-04-16T16:31:02.075Z,44.10
2023-04-16T16:33:28.765Z,43.92
2023-04-16T16:35:55.247Z,43.87
2023-04-16T16:38:21.955Z,43.64
2023-04-16T16:40:48.429Z,43.99
2023-04-16T16:43:15.047Z,43.38
2023-04-16T16:45:41.504Z,44.06
2023-04-16T16:48:07.942Z,43.96
2023-04-16T16:50:34.401Z,44.04
2023-04-16T16:53:00.865Z,45.03
2023-04-16T16:55:27.277Z,45.60
2023-04-16T16:57:53.762Z,46.31
2023-04-16T17:00:20.148Z,46.32
2023-04-16T17:02:48.141Z,47.03
2023-04-16T17:05:14.649Z,47.54
2023-04-16T17:07:41.907Z,47.32
2023-04-16T17:10:08.294Z,48.54
2023-04-16T17:12:34.664Z,48.79
2023-04-16T17:15:01.032Z,48.80
2023-04-16T17:17:27.498Z,48.96
2023-04-16T17:19:54.018Z,48.47
2023-04-16T17:22:20.921Z,48.75
2023-04-16T17:24:47.425Z,49.36
2023-04-16T17:27:15.164Z,49.13
2023-04-16T17:29:42.076Z,49.14
2023-04-16T17:32:08.674Z,50.29
2023-04-16T17:34:35.252Z,49.91
2023-04-16T17:37:01.727Z,50.59
2023-04-16T17:39:30.778Z,51.33
2023-04-16T17:41:57.311Z,51.79
2023-04-16T17:44:23.735Z,51.46
2023-04-16T17:46:50.167Z,52.33
2023-04-16T17:49:16.619Z,51.10
2023-04-16T17:51:43.076Z,50.60
2023-04-16T17:54:09.729Z,50.89
2023-04-16T17:56:36.600Z,51.03
2023-04-16T17:59:03.100Z,51.70
2023-04-16T18:01:29.537Z,54.77
2023-04-16T18:03:56.213Z,54.50
2023-04-16T18:06:22.764Z,55.56
2023-04-16T18:08:49.170Z,56.47
2023-04-16T18:11:15.557Z,56.83
2023-04-16T18:13:41.985Z,55.80
2023-04-16T18:16:08.409Z,55.83
2023-04-16T18:18:37.393Z,57.04
2023-04-16T18:21:03.787Z,57.32
2023-04-16T18:23:30.197Z,57.24
2023-04-16T18:25:56.633Z,56.98
2023-04-16T18:28:23.013Z,56.38
2023-04-16T18:30:50.938Z,55.42
2023-04-16T18:35:46.926Z,52.76
2023-04-16T18:38:13.373Z,52.74
2023-04-16T18:40:39.940Z,52.34
2023-04-16T18:43:06.437Z,52.01
2023-04-16T18:45:34.233Z,51.80
2023-04-16T18:48:01.098Z,52.26
2023-04-16T18:50:27.502Z,52.44
2023-04-16T18:52:58.829Z,52.97
2023-04-16T18:55:34.740Z,53.50
2023-04-16T18:58:04.117Z,54.87
2023-04-16T19:00:30.780Z,54.51
2023-04-16T19:02:59.648Z,56.25
2023-04-16T19:05:36.709Z,56.70
2023-04-16T19:08:06.142Z,55.64
2023-04-16T19:10:35.205Z,56.16
2023-04-16T19:13:01.623Z,55.39
2023-04-16T19:15:32.127Z,55.97
2023-04-16T19:18:03.809Z,55.28
2023-04-16T19:20:34.301Z,55.80
2023-04-16T19:23:03.947Z,56.41
2023-04-16T19:25:33.137Z,56.28
2023-04-16T19:30:40.677Z,56.23
2023-04-16T19:33:07.134Z,56.15
2023-04-16T19:35:33.717Z,56.09
2023-04-16T19:38:00.128Z,56.11
2023-04-16T19:40:30.257Z,56.63
2023-04-16T19:42:59.954Z,56.42
2023-04-16T19:45:26.523Z,57.19
2023-04-16T19:47:53.038Z,57.45
2023-04-16T19:50:22.489Z,58.35
2023-04-16T19:52:49.146Z,58.19
2023-04-16T19:55:18.658Z,58.10
2023-04-16T19:57:45.085Z,58.16
2023-04-16T20:00:11.816Z,58.48
2023-04-16T20:02:43.760Z,58.29
2023-04-16T20:05:11.632Z,58.17
2023-04-16T20:07:38.150Z,57.83
2023-04-16T20:10:08.388Z,59.02
2023-04-16T20:12:35.050Z,59.53
2023-04-16T20:15:04.227Z,58.89
2023-04-16T20:17:31.338Z,57.94
2023-04-16T20:19:57.813Z,58.25
2023-04-16T20:22:24.508Z,56.96
2023-04-16T20:24:52.697Z,57.65
2023-04-16T20:27:21.987Z,57.72
2023-04-16T20:29:48.431Z,57.62
2023-04-16T20:32:14.933Z,57.17
2023-04-16T20:34:41.520Z,57.32
2023-04-16T20:37:08.218Z,56.49
2023-04-16T20:39:34.625Z,56.43
2023-04-16T20:42:01.196Z,56.12
2023-04-16T20:44:27.624Z,55.92
2023-04-16T20:46:54.102Z,56.07
2023-04-16T20:49:20.557Z,56.26
2023-04-16T20:51:47.118Z,55.80
2023-04-16T20:54:13.582Z,55.89
2023-04-16T20:56:39.948Z,55.80
2023-04-16T20:59:06.530Z,56.46
2023-04-16T21:01:33.091Z,56.11
2023-04-16T21:03:59.855Z,55.96
2023-04-16T21:06:26.503Z,55.55
2023-04-16T21:08:53.143Z,55.80
2023-04-16T21:11:19.552Z,55.50
2023-04-16T21:13:47.387Z,56.24
2023-04-16T21:16:15.463Z,56.30
2023-04-16T21:18:41.957Z,57.80
2023-04-16T21:21:08.556Z,57.13
2023-04-16T21:23:35.040Z,56.83
2023-04-16T21:26:01.486Z,56.20
2023-04-16T21:28:28.033Z,56.15
2023-04-16T21:30:54.388Z,56.39
2023-04-16T21:33:20.797Z,56.41
2023-04-16T21:35:47.569Z,56.29
2023-04-16T21:38:13.933Z,56.64
2023-04-16T21:40:40.322Z,56.46
2023-04-16T21:43:09.736Z,56.64
2023-04-16T21:45:36.255Z,56.46
2023-04-16T21:48:02.694Z,56.94
2023-04-16T21:50:29.355Z,57.17
2023-04-16T21:52:55.768Z,56.92
2023-04-16T21:55:22.144Z,56.78
2023-04-16T21:57:48.516Z,56.13
2023-04-16T22:00:14.922Z,56.67
2023-04-16T22:02:41.409Z,56.85
2023-04-16T22:05:07.952Z,56.65
2023-04-16T22:07:34.357Z,57.32
2023-04-16T22:10:00.791Z,56.94
2023-04-16T22:12:27.487Z,56.90
2023-04-16T22:15:02.501Z,57.43
2023-04-16T22:17:29.668Z,57.21
2023-04-16T22:19:56.058Z,56.80
2023-04-16T22:22:22.433Z,56.17
2023-04-16T22:24:48.812Z,56.84
2023-04-16T22:27:15.192Z,56.46
2023-04-16T22:29:41.666Z,57.10
2023-04-16T22:32:08.076Z,56.36
2023-04-16T22:34:34.507Z,56.71
2023-04-16T22:37:00.955Z,57.32
2023-04-16T22:39:27.360Z,57.42
2023-04-16T22:41:53.731Z,57.67
2023-04-16T22:44:20.073Z,58.17
2023-04-16T22:46:46.488Z,58.03
2023-04-16T22:49:13.113Z,58.83
2023-04-16T22:51:39.682Z,58.65
2023-04-16T22:54:06.243Z,58.68
2023-04-16T22:56:32.656Z,58.56
2023-04-16T22:58:59.068Z,59.33
2023-04-16T23:01:25.593Z,58.79
2023-04-16T23:03:52.196Z,58.17
2023-04-16T23:06:18.614Z,58.32
2023-04-16T23:08:45.075Z,57.96
2023-04-16T23:11:11.497Z,57.83
2023-04-16T23:13:37.851Z,57.60
2023-04-16T23:16:04.318Z,57.89
2023-04-16T23:18:30.739Z,57.15
2023-04-16T23:20:57.120Z,57.27
2023-04-16T23:23:23.527Z,57.88
2023-04-16T23:25:49.911Z,57.95
2023-04-16T23:28:16.288Z,57.95
2023-04-16T23:30:42.710Z,57.85
2023-04-16T23:33:09.340Z,57.87
2023-04-16T23:35:35.750Z,58.45
2023-04-16T23:38:02.139Z,58.42
2023-04-16T23:40:28.514Z,58.15
2023-04-16T23:42:54.873Z,57.94
2023-04-16T23:45:21.285Z,58.75
2023-04-16T23:47:47.720Z,58.74
2023-04-16T23:50:14.151Z,58.55
2023-04-16T23:52:40.554Z,58.22
2023-04-16T23:55:07.000Z,57.82
2023-04-16T23:57:33.405Z,57.89
2023-04-16T23:59:59.775Z,57.85
